sensor_id;sensor_type;location;lat;lon;timestamp;temperature;humidity
39847;DHT22;25517;52.422;10.782;2023-08-20T00:00:24;21.90;99.90
39847;DHT22;25517;52.422;10.782;2023-08-20T00:02:52;21.90;99.90
39847;DHT22;25517;52.422;10.782;2023-08-20T00:05:20;21.90;99.90
39847;DHT22;25517;52.422;10.782;2023-08-20T00:07:46;21.80;99.90
39847;DHT22;25517;52.422;10.782;2023-08-20T00:10:12;21.80;99.90
39847;DHT22;25517;52.422;10.782;2023-08-20T00:12:38;21.80;99.90
39847;DHT22;25517;52.422;10.782;2023-08-20T00:15:04;21.80;99.90
39847;DHT22;25517;52.422;10.782;2023-08-20T00:17:35;21.80;99.90
39847;DHT22;25517;52.422;10.782;2023-08-20T00:20:01;21.80;99.90
39847;DHT22;25517;52.422;10.782;2023-08-20T00:22:29;21.90;99.90
39847;DHT22;25517;52.422;10.782;2023-08-20T00:24:55;21.80;99.90
39847;DHT22;25517;52.422;10.782;2023-08-20T00:27:21;21.80;99.90
39847;DHT22;25517;52.422;10.782;2023-08-20T00:29:47;21.90;99.90
39847;DHT22;25517;52.422;10.782;2023-08-20T00:32:14;21.90;99.90
39847;DHT22;25517;52.422;10.782;2023-08-20T00:34:39;21.90;99.90
39847;DHT22;25517;52.422;10.782;2023-08-20T00:37:05;21.80;99.90
39847;DHT22;25517;52.422;10.782;2023-08-20T00:39:31;21.80;99.90
39847;DHT22;25517;52.422;10.782;2023-08-20T00:41:56;21.90;99.90
39847;DHT22;25517;52.422;10.782;2023-08-20T00:44:22;21.90;99.90
39847;DHT22;25517;52.422;10.782;2023-08-20T00:46:47;21.90;99.90
39847;DHT22;25517;52.422;10.782;2023-08-20T00:49:13;21.90;99.90
39847;DHT22;25517;52.422;10.782;2023-08-20T00:51:39;21.90;99.90
39847;DHT22;25517;52.422;10.782;2023-08-20T00:54:05;21.80;99.90
39847;DHT22;25517;52.422;10.782;2023-08-20T00:56:31;21.80;99.90
39847;DHT22;25517;52.422;10.782;2023-08-20T00:58:56;21.90;99.90
39847;DHT22;25517;52.422;10.782;2023-08-20T01:01:22;21.80;99.90
39847;DHT22;25517;52.422;10.782;2023-08-20T01:03:48;21.90;99.90
39847;DHT22;25517;52.422;10.782;2023-08-20T01:06:44;21.80;99.90
39847;DHT22;25517;52.422;10.782;2023-08-20T01:12:06;21.80;99.90
39847;DHT22;25517;52.422;10.782;2023-08-20T01:14:32;21.80;99.90
39847;DHT22;25517;52.422;10.782;2023-08-20T01:16:57;21.80;99.90
39847;DHT22;25517;52.422;10.782;2023-08-20T01:19:23;21.70;99.90
39847;DHT22;25517;52.422;10.782;2023-08-20T01:24:44;21.70;99.90
39847;DHT22;25517;52.422;10.782;2023-08-20T01:30:01;21.70;99.90
39847;DHT22;25517;52.422;10.782;2023-08-20T01:32:28;21.70;99.90
39847;DHT22;25517;52.422;10.782;2023-08-20T01:34:54;21.70;99.90
39847;DHT22;25517;52.422;10.782;2023-08-20T01:37:20;21.70;99.90
39847;DHT22;25517;52.422;10.782;2023-08-20T01:39:45;21.70;99.90
39847;DHT22;25517;52.422;10.782;2023-08-20T01:42:11;21.70;99.90
39847;DHT22;25517;52.422;10.782;2023-08-20T01:44:36;21.70;99.90
39847;DHT22;25517;52.422;10.782;2023-08-20T01:47:02;21.70;99.90
39847;DHT22;25517;52.422;10.782;2023-08-20T01:49:28;21.60;99.90
39847;DHT22;25517;52.422;10.782;2023-08-20T01:51:53;21.60;99.90
39847;DHT22;25517;52.422;10.782;2023-08-20T01:54:19;21.60;99.90
39847;DHT22;25517;52.422;10.782;2023-08-20T01:56:44;21.60;99.90
39847;DHT22;25517;52.422;10.782;2023-08-20T01:59:10;21.60;99.90
39847;DHT22;25517;52.422;10.782;2023-08-20T02:01:36;21.50;99.90
39847;DHT22;25517;52.422;10.782;2023-08-20T02:04:01;21.50;99.90
39847;DHT22;25517;52.422;10.782;2023-08-20T02:06:27;21.50;99.90
39847;DHT22;25517;52.422;10.782;2023-08-20T02:08:53;21.50;99.90
39847;DHT22;25517;52.422;10.782;2023-08-20T02:11:18;21.50;99.90
39847;DHT22;25517;52.422;10.782;2023-08-20T02:13:43;21.40;99.90
39847;DHT22;25517;52.422;10.782;2023-08-20T02:16:09;21.40;99.90
39847;DHT22;25517;52.422;10.782;2023-08-20T02:18:35;21.40;99.90
39847;DHT22;25517;52.422;10.782;2023-08-20T02:21:00;21.40;99.90
39847;DHT22;25517;52.422;10.782;2023-08-20T02:23:26;21.40;99.90
39847;DHT22;25517;52.422;10.782;2023-08-20T02:25:52;21.40;99.90
39847;DHT22;25517;52.422;10.782;2023-08-20T02:28:17;21.30;99.90
39847;DHT22;25517;52.422;10.782;2023-08-20T02:30:45;21.30;99.90
39847;DHT22;25517;52.422;10.782;2023-08-20T02:33:10;21.30;99.90
39847;DHT22;25517;52.422;10.782;2023-08-20T02:35:39;21.20;99.90
39847;DHT22;25517;52.422;10.782;2023-08-20T02:38:06;21.20;99.90
39847;DHT22;25517;52.422;10.782;2023-08-20T02:40:31;21.20;99.90
39847;DHT22;25517;52.422;10.782;2023-08-20T02:42:57;21.20;99.90
39847;DHT22;25517;52.422;10.782;2023-08-20T02:45:23;21.10;99.90
39847;DHT22;25517;52.422;10.782;2023-08-20T02:47:49;21.10;99.90
39847;DHT22;25517;52.422;10.782;2023-08-20T02:50:15;21.10;99.90
39847;DHT22;25517;52.422;10.782;2023-08-20T02:52:42;21.10;99.90
39847;DHT22;25517;52.422;10.782;2023-08-20T02:55:08;21.10;99.90
39847;DHT22;25517;52.422;10.782;2023-08-20T02:57:33;21.00;99.90
39847;DHT22;25517;52.422;10.782;2023-08-20T02:59:59;21.00;99.90
39847;DHT22;25517;52.422;10.782;2023-08-20T03:02:24;21.00;99.90
39847;DHT22;25517;52.422;10.782;2023-08-20T03:04:50;20.90;99.90
39847;DHT22;25517;52.422;10.782;2023-08-20T03:07:15;20.90;99.90
39847;DHT22;25517;52.422;10.782;2023-08-20T03:09:41;20.80;99.90
39847;DHT22;25517;52.422;10.782;2023-08-20T03:12:07;20.80;99.90
39847;DHT22;25517;52.422;10.782;2023-08-20T03:14:32;20.70;99.90
39847;DHT22;25517;52.422;10.782;2023-08-20T03:16:58;20.70;99.90
39847;DHT22;25517;52.422;10.782;2023-08-20T03:19:23;20.60;99.90
39847;DHT22;25517;52.422;10.782;2023-08-20T03:21:49;20.60;99.90
39847;DHT22;25517;52.422;10.782;2023-08-20T03:24:14;20.60;99.90
39847;DHT22;25517;52.422;10.782;2023-08-20T03:26:40;20.50;99.90
39847;DHT22;25517;52.422;10.782;2023-08-20T03:29:05;20.40;99.90
39847;DHT22;25517;52.422;10.782;2023-08-20T03:31:31;20.40;99.90
39847;DHT22;25517;52.422;10.782;2023-08-20T03:33:57;20.40;99.90
39847;DHT22;25517;52.422;10.782;2023-08-20T03:36:22;20.30;99.90
39847;DHT22;25517;52.422;10.782;2023-08-20T03:38:48;20.30;99.90
39847;DHT22;25517;52.422;10.782;2023-08-20T03:41:14;20.20;99.90
39847;DHT22;25517;52.422;10.782;2023-08-20T03:43:39;20.20;99.90
39847;DHT22;25517;52.422;10.782;2023-08-20T03:46:05;20.10;99.90
39847;DHT22;25517;52.422;10.782;2023-08-20T03:48:30;20.20;99.90
39847;DHT22;25517;52.422;10.782;2023-08-20T03:50:56;20.10;99.90
39847;DHT22;25517;52.422;10.782;2023-08-20T03:53:22;20.10;99.90
39847;DHT22;25517;52.422;10.782;2023-08-20T03:55:49;20.00;99.90
39847;DHT22;25517;52.422;10.782;2023-08-20T03:58:14;20.00;99.90
39847;DHT22;25517;52.422;10.782;2023-08-20T04:00:40;20.00;99.90
39847;DHT22;25517;52.422;10.782;2023-08-20T04:03:06;20.00;99.90
39847;DHT22;25517;52.422;10.782;2023-08-20T04:05:38;19.90;99.90
39847;DHT22;25517;52.422;10.782;2023-08-20T04:08:05;19.90;99.90
39847;DHT22;25517;52.422;10.782;2023-08-20T04:10:31;20.00;99.90
39847;DHT22;25517;52.422;10.782;2023-08-20T04:12:56;20.00;99.90
39847;DHT22;25517;52.422;10.782;2023-08-20T04:15:22;20.00;99.90
39847;DHT22;25517;52.422;10.782;2023-08-20T04:17:47;20.00;99.90
39847;DHT22;25517;52.422;10.782;2023-08-20T04:20:14;20.00;99.90
39847;DHT22;25517;52.422;10.782;2023-08-20T04:22:40;20.00;99.90
39847;DHT22;25517;52.422;10.782;2023-08-20T04:25:06;20.00;99.90
39847;DHT22;25517;52.422;10.782;2023-08-20T04:27:32;19.90;99.90
39847;DHT22;25517;52.422;10.782;2023-08-20T04:29:57;19.90;99.90
39847;DHT22;25517;52.422;10.782;2023-08-20T04:32:23;19.90;99.90
39847;DHT22;25517;52.422;10.782;2023-08-20T04:34:48;19.90;99.90
39847;DHT22;25517;52.422;10.782;2023-08-20T04:37:18;19.90;99.90
39847;DHT22;25517;52.422;10.782;2023-08-20T04:39:44;19.90;99.90
39847;DHT22;25517;52.422;10.782;2023-08-20T04:42:09;19.90;99.90
39847;DHT22;25517;52.422;10.782;2023-08-20T04:44:35;19.90;99.90
39847;DHT22;25517;52.422;10.782;2023-08-20T04:47:00;19.90;99.90
39847;DHT22;25517;52.422;10.782;2023-08-20T04:49:26;19.90;99.90
39847;DHT22;25517;52.422;10.782;2023-08-20T04:51:54;19.90;99.90
39847;DHT22;25517;52.422;10.782;2023-08-20T04:54:19;19.90;99.90
39847;DHT22;25517;52.422;10.782;2023-08-20T04:56:45;19.90;99.90
39847;DHT22;25517;52.422;10.782;2023-08-20T04:59:10;19.90;99.90
39847;DHT22;25517;52.422;10.782;2023-08-20T05:01:37;19.90;99.90
39847;DHT22;25517;52.422;10.782;2023-08-20T05:04:03;19.90;99.90
39847;DHT22;25517;52.422;10.782;2023-08-20T05:06:29;20.00;99.90
39847;DHT22;25517;52.422;10.782;2023-08-20T05:08:55;20.00;99.90
39847;DHT22;25517;52.422;10.782;2023-08-20T05:11:20;20.00;99.90
39847;DHT22;25517;52.422;10.782;2023-08-20T05:13:49;20.00;99.90
39847;DHT22;25517;52.422;10.782;2023-08-20T05:16:15;20.00;99.90
39847;DHT22;25517;52.422;10.782;2023-08-20T05:18:40;20.00;99.90
39847;DHT22;25517;52.422;10.782;2023-08-20T05:21:06;20.10;99.90
39847;DHT22;25517;52.422;10.782;2023-08-20T05:23:31;20.20;99.90
39847;DHT22;25517;52.422;10.782;2023-08-20T05:25:57;20.20;99.90
39847;DHT22;25517;52.422;10.782;2023-08-20T05:28:22;20.20;99.90
39847;DHT22;25517;52.422;10.782;2023-08-20T05:30:55;20.20;99.90
39847;DHT22;25517;52.422;10.782;2023-08-20T05:33:22;20.30;99.90
39847;DHT22;25517;52.422;10.782;2023-08-20T05:35:48;20.20;99.90
39847;DHT22;25517;52.422;10.782;2023-08-20T05:38:14;20.30;99.90
39847;DHT22;25517;52.422;10.782;2023-08-20T05:40:39;20.30;99.90
39847;DHT22;25517;52.422;10.782;2023-08-20T05:43:05;20.30;99.90
39847;DHT22;25517;52.422;10.782;2023-08-20T05:45:30;20.30;99.90
39847;DHT22;25517;52.422;10.782;2023-08-20T05:47:56;20.30;99.90
39847;DHT22;25517;52.422;10.782;2023-08-20T05:50:21;20.30;99.90
39847;DHT22;25517;52.422;10.782;2023-08-20T05:52:48;20.30;99.90
39847;DHT22;25517;52.422;10.782;2023-08-20T05:58:35;20.40;99.90
39847;DHT22;25517;52.422;10.782;2023-08-20T06:01:01;20.40;99.90
39847;DHT22;25517;52.422;10.782;2023-08-20T06:03:26;20.40;99.90
39847;DHT22;25517;52.422;10.782;2023-08-20T06:05:52;20.40;99.90
39847;DHT22;25517;52.422;10.782;2023-08-20T06:08:17;20.40;99.90
39847;DHT22;25517;52.422;10.782;2023-08-20T06:10:43;20.50;99.90
39847;DHT22;25517;52.422;10.782;2023-08-20T06:13:09;20.50;99.90
39847;DHT22;25517;52.422;10.782;2023-08-20T06:15:34;20.60;99.90
39847;DHT22;25517;52.422;10.782;2023-08-20T06:18:00;20.60;99.90
39847;DHT22;25517;52.422;10.782;2023-08-20T06:20:25;20.70;99.90
39847;DHT22;25517;52.422;10.782;2023-08-20T06:22:51;20.80;99.90
39847;DHT22;25517;52.422;10.782;2023-08-20T06:25:16;20.80;99.90
39847;DHT22;25517;52.422;10.782;2023-08-20T06:27:42;20.90;99.90
39847;DHT22;25517;52.422;10.782;2023-08-20T06:30:08;21.00;99.90
39847;DHT22;25517;52.422;10.782;2023-08-20T06:32:34;21.10;99.90
39847;DHT22;25517;52.422;10.782;2023-08-20T06:35:00;21.10;99.90
39847;DHT22;25517;52.422;10.782;2023-08-20T06:37:25;21.20;99.90
39847;DHT22;25517;52.422;10.782;2023-08-20T06:39:51;21.30;99.90
39847;DHT22;25517;52.422;10.782;2023-08-20T06:42:16;21.40;99.90
39847;DHT22;25517;52.422;10.782;2023-08-20T06:44:42;21.30;99.90
39847;DHT22;25517;52.422;10.782;2023-08-20T06:47:07;21.40;99.90
39847;DHT22;25517;52.422;10.782;2023-08-20T06:49:33;21.40;99.90
39847;DHT22;25517;52.422;10.782;2023-08-20T06:51:58;21.40;99.90
39847;DHT22;25517;52.422;10.782;2023-08-20T06:54:24;21.50;99.90
39847;DHT22;25517;52.422;10.782;2023-08-20T06:56:49;21.60;99.90
39847;DHT22;25517;52.422;10.782;2023-08-20T06:59:15;21.60;99.90
39847;DHT22;25517;52.422;10.782;2023-08-20T07:01:41;21.60;99.90
39847;DHT22;25517;52.422;10.782;2023-08-20T07:04:07;21.70;99.90
39847;DHT22;25517;52.422;10.782;2023-08-20T07:06:33;21.80;99.90
39847;DHT22;25517;52.422;10.782;2023-08-20T07:08:58;21.80;99.90
39847;DHT22;25517;52.422;10.782;2023-08-20T07:11:24;21.90;99.90
39847;DHT22;25517;52.422;10.782;2023-08-20T07:13:49;21.90;99.90
39847;DHT22;25517;52.422;10.782;2023-08-20T07:16:15;21.90;99.90
39847;DHT22;25517;52.422;10.782;2023-08-20T07:18:40;21.90;99.90
39847;DHT22;25517;52.422;10.782;2023-08-20T07:21:06;22.00;99.90
39847;DHT22;25517;52.422;10.782;2023-08-20T07:23:33;22.10;99.90
39847;DHT22;25517;52.422;10.782;2023-08-20T07:26:09;22.20;99.90
39847;DHT22;25517;52.422;10.782;2023-08-20T07:28:36;22.40;99.90
39847;DHT22;25517;52.422;10.782;2023-08-20T07:31:20;22.40;99.90
39847;DHT22;25517;52.422;10.782;2023-08-20T07:33:50;22.50;99.90
39847;DHT22;25517;52.422;10.782;2023-08-20T07:36:16;22.60;99.90
39847;DHT22;25517;52.422;10.782;2023-08-20T07:38:42;22.60;99.90
39847;DHT22;25517;52.422;10.782;2023-08-20T07:41:12;22.70;99.90
39847;DHT22;25517;52.422;10.782;2023-08-20T07:43:38;22.80;99.90
39847;DHT22;25517;52.422;10.782;2023-08-20T07:46:04;22.80;99.90
39847;DHT22;25517;52.422;10.782;2023-08-20T07:48:30;22.90;99.90
39847;DHT22;25517;52.422;10.782;2023-08-20T07:50:55;23.00;99.90
39847;DHT22;25517;52.422;10.782;2023-08-20T07:53:21;23.10;99.90
39847;DHT22;25517;52.422;10.782;2023-08-20T07:55:47;23.30;99.90
39847;DHT22;25517;52.422;10.782;2023-08-20T07:58:12;23.40;99.90
39847;DHT22;25517;52.422;10.782;2023-08-20T08:00:38;23.60;99.90
39847;DHT22;25517;52.422;10.782;2023-08-20T08:03:03;23.80;99.90
39847;DHT22;25517;52.422;10.782;2023-08-20T08:05:29;24.00;99.90
39847;DHT22;25517;52.422;10.782;2023-08-20T08:07:55;24.40;99.90
39847;DHT22;25517;52.422;10.782;2023-08-20T08:10:20;25.10;99.90
39847;DHT22;25517;52.422;10.782;2023-08-20T08:12:46;26.30;99.90
39847;DHT22;25517;52.422;10.782;2023-08-20T08:15:11;27.80;99.90
39847;DHT22;25517;52.422;10.782;2023-08-20T08:17:38;29.20;98.50
39847;DHT22;25517;52.422;10.782;2023-08-20T08:20:04;30.80;95.20
39847;DHT22;25517;52.422;10.782;2023-08-20T08:22:30;31.90;93.00
39847;DHT22;25517;52.422;10.782;2023-08-20T08:24:56;33.00;89.50
39847;DHT22;25517;52.422;10.782;2023-08-20T08:27:21;34.10;84.20
39847;DHT22;25517;52.422;10.782;2023-08-20T08:29:47;34.50;82.30
39847;DHT22;25517;52.422;10.782;2023-08-20T08:32:12;35.30;77.00
39847;DHT22;25517;52.422;10.782;2023-08-20T08:34:38;36.30;73.00
39847;DHT22;25517;52.422;10.782;2023-08-20T08:37:03;37.00;70.50
39847;DHT22;25517;52.422;10.782;2023-08-20T08:39:29;37.60;69.30
39847;DHT22;25517;52.422;10.782;2023-08-20T08:42:00;37.90;67.10
39847;DHT22;25517;52.422;10.782;2023-08-20T08:44:27;38.30;66.40
39847;DHT22;25517;52.422;10.782;2023-08-20T08:46:53;38.30;64.20
39847;DHT22;25517;52.422;10.782;2023-08-20T08:49:19;37.60;66.50
39847;DHT22;25517;52.422;10.782;2023-08-20T08:51:46;38.50;63.60
39847;DHT22;25517;52.422;10.782;2023-08-20T08:54:13;39.20;61.60
39847;DHT22;25517;52.422;10.782;2023-08-20T08:56:39;39.60;60.80
39847;DHT22;25517;52.422;10.782;2023-08-20T08:59:05;40.10;60.00
39847;DHT22;25517;52.422;10.782;2023-08-20T09:01:31;39.30;60.60
39847;DHT22;25517;52.422;10.782;2023-08-20T09:03:57;39.40;60.00
39847;DHT22;25517;52.422;10.782;2023-08-20T09:06:22;39.90;60.30
39847;DHT22;25517;52.422;10.782;2023-08-20T09:08:48;40.00;59.60
39847;DHT22;25517;52.422;10.782;2023-08-20T09:11:13;40.50;58.70
39847;DHT22;25517;52.422;10.782;2023-08-20T09:13:40;39.80;61.20
39847;DHT22;25517;52.422;10.782;2023-08-20T09:16:10;40.10;60.10
39847;DHT22;25517;52.422;10.782;2023-08-20T09:18:44;40.30;59.50
39847;DHT22;25517;52.422;10.782;2023-08-20T09:21:11;40.40;58.30
39847;DHT22;25517;52.422;10.782;2023-08-20T09:23:37;41.10;57.30
39847;DHT22;25517;52.422;10.782;2023-08-20T09:26:04;41.40;56.10
39847;DHT22;25517;52.422;10.782;2023-08-20T09:28:44;41.50;57.30
39847;DHT22;25517;52.422;10.782;2023-08-20T09:31:10;41.20;57.60
39847;DHT22;25517;52.422;10.782;2023-08-20T09:33:36;41.30;55.40
39847;DHT22;25517;52.422;10.782;2023-08-20T09:36:03;41.20;55.90
39847;DHT22;25517;52.422;10.782;2023-08-20T09:38:29;41.10;55.60
39847;DHT22;25517;52.422;10.782;2023-08-20T09:40:55;40.70;55.20
39847;DHT22;25517;52.422;10.782;2023-08-20T09:43:25;40.90;56.20
39847;DHT22;25517;52.422;10.782;2023-08-20T09:45:54;40.90;54.90
39847;DHT22;25517;52.422;10.782;2023-08-20T09:48:21;40.70;56.40
39847;DHT22;25517;52.422;10.782;2023-08-20T09:50:48;40.90;55.90
39847;DHT22;25517;52.422;10.782;2023-08-20T09:53:39;40.70;56.90
39847;DHT22;25517;52.422;10.782;2023-08-20T09:56:29;41.10;55.10
39847;DHT22;25517;52.422;10.782;2023-08-20T09:58:57;40.60;57.20
39847;DHT22;25517;52.422;10.782;2023-08-20T10:01:24;40.70;56.00
39847;DHT22;25517;52.422;10.782;2023-08-20T10:03:50;40.40;56.10
39847;DHT22;25517;52.422;10.782;2023-08-20T10:06:15;40.90;57.50
39847;DHT22;25517;52.422;10.782;2023-08-20T10:08:41;40.30;59.40
39847;DHT22;25517;52.422;10.782;2023-08-20T10:11:07;40.30;58.00
39847;DHT22;25517;52.422;10.782;2023-08-20T10:13:32;40.60;58.20
39847;DHT22;25517;52.422;10.782;2023-08-20T10:15:58;40.20;57.40
39847;DHT22;25517;52.422;10.782;2023-08-20T10:18:24;40.10;58.00
39847;DHT22;25517;52.422;10.782;2023-08-20T10:20:50;40.40;56.00
39847;DHT22;25517;52.422;10.782;2023-08-20T10:23:20;40.00;56.70
39847;DHT22;25517;52.422;10.782;2023-08-20T10:25:48;40.20;58.50
39847;DHT22;25517;52.422;10.782;2023-08-20T10:31:12;38.80;57.20
39847;DHT22;25517;52.422;10.782;2023-08-20T10:33:47;38.00;61.40
39847;DHT22;25517;52.422;10.782;2023-08-20T10:36:19;38.20;61.30
39847;DHT22;25517;52.422;10.782;2023-08-20T10:38:50;38.80;60.00
39847;DHT22;25517;52.422;10.782;2023-08-20T10:41:15;38.60;61.50
39847;DHT22;25517;52.422;10.782;2023-08-20T10:43:49;39.40;59.10
39847;DHT22;25517;52.422;10.782;2023-08-20T10:46:17;39.80;60.70
39847;DHT22;25517;52.422;10.782;2023-08-20T10:49:07;39.50;59.10
39847;DHT22;25517;52.422;10.782;2023-08-20T10:51:32;39.50;60.10
39847;DHT22;25517;52.422;10.782;2023-08-20T10:56:48;40.40;58.50
39847;DHT22;25517;52.422;10.782;2023-08-20T10:59:17;40.30;57.70
39847;DHT22;25517;52.422;10.782;2023-08-20T11:01:44;40.50;57.00
39847;DHT22;25517;52.422;10.782;2023-08-20T11:04:11;40.40;58.60
39847;DHT22;25517;52.422;10.782;2023-08-20T11:06:37;40.50;57.60
39847;DHT22;25517;52.422;10.782;2023-08-20T11:09:04;40.60;57.80
39847;DHT22;25517;52.422;10.782;2023-08-20T11:11:31;40.50;59.60
39847;DHT22;25517;52.422;10.782;2023-08-20T11:14:03;40.20;56.70
39847;DHT22;25517;52.422;10.782;2023-08-20T11:16:29;40.40;56.70
39847;DHT22;25517;52.422;10.782;2023-08-20T11:18:57;40.70;57.60
39847;DHT22;25517;52.422;10.782;2023-08-20T11:21:22;40.50;57.70
39847;DHT22;25517;52.422;10.782;2023-08-20T11:23:48;40.30;56.90
39847;DHT22;25517;52.422;10.782;2023-08-20T11:26:14;40.20;59.20
39847;DHT22;25517;52.422;10.782;2023-08-20T11:28:45;40.00;57.90
39847;DHT22;25517;52.422;10.782;2023-08-20T11:31:12;40.40;57.50
39847;DHT22;25517;52.422;10.782;2023-08-20T11:33:37;40.10;59.10
39847;DHT22;25517;52.422;10.782;2023-08-20T11:36:05;40.30;59.00
39847;DHT22;25517;52.422;10.782;2023-08-20T11:38:31;39.40;54.90
39847;DHT22;25517;52.422;10.782;2023-08-20T11:40:58;39.50;56.00
39847;DHT22;25517;52.422;10.782;2023-08-20T11:43:28;39.30;57.60
39847;DHT22;25517;52.422;10.782;2023-08-20T11:45:53;39.60;56.80
39847;DHT22;25517;52.422;10.782;2023-08-20T11:48:20;39.90;58.20
39847;DHT22;25517;52.422;10.782;2023-08-20T11:50:46;40.00;55.10
39847;DHT22;25517;52.422;10.782;2023-08-20T11:53:12;40.40;55.20
39847;DHT22;25517;52.422;10.782;2023-08-20T11:55:41;39.90;55.20
39847;DHT22;25517;52.422;10.782;2023-08-20T11:58:11;39.90;53.40
39847;DHT22;25517;52.422;10.782;2023-08-20T12:00:37;39.50;55.70
39847;DHT22;25517;52.422;10.782;2023-08-20T12:03:03;39.70;54.40
39847;DHT22;25517;52.422;10.782;2023-08-20T12:05:30;39.80;53.70
39847;DHT22;25517;52.422;10.782;2023-08-20T12:08:01;39.50;54.70
39847;DHT22;25517;52.422;10.782;2023-08-20T12:10:28;39.20;58.40
39847;DHT22;25517;52.422;10.782;2023-08-20T12:12:55;38.40;57.70
39847;DHT22;25517;52.422;10.782;2023-08-20T12:15:21;37.50;59.60
39847;DHT22;25517;52.422;10.782;2023-08-20T12:18:04;36.80;59.20
39847;DHT22;25517;52.422;10.782;2023-08-20T12:20:32;36.30;64.40
39847;DHT22;25517;52.422;10.782;2023-08-20T12:22:59;35.90;60.50
39847;DHT22;25517;52.422;10.782;2023-08-20T12:25:25;35.70;61.70
39847;DHT22;25517;52.422;10.782;2023-08-20T12:27:51;35.70;61.90
39847;DHT22;25517;52.422;10.782;2023-08-20T12:30:16;35.20;63.90
39847;DHT22;25517;52.422;10.782;2023-08-20T12:32:42;35.10;65.00
39847;DHT22;25517;52.422;10.782;2023-08-20T12:35:08;35.00;63.40
39847;DHT22;25517;52.422;10.782;2023-08-20T12:37:33;34.70;63.10
39847;DHT22;25517;52.422;10.782;2023-08-20T12:39:59;34.30;64.80
39847;DHT22;25517;52.422;10.782;2023-08-20T12:42:25;34.20;65.00
39847;DHT22;25517;52.422;10.782;2023-08-20T12:44:50;33.90;64.10
39847;DHT22;25517;52.422;10.782;2023-08-20T12:47:16;33.80;64.50
39847;DHT22;25517;52.422;10.782;2023-08-20T12:49:41;33.70;63.30
39847;DHT22;25517;52.422;10.782;2023-08-20T12:52:07;33.70;66.60
39847;DHT22;25517;52.422;10.782;2023-08-20T12:54:33;33.40;65.50
39847;DHT22;25517;52.422;10.782;2023-08-20T12:56:59;33.30;66.00
39847;DHT22;25517;52.422;10.782;2023-08-20T12:59:24;33.00;66.60
39847;DHT22;25517;52.422;10.782;2023-08-20T13:01:50;32.60;68.30
39847;DHT22;25517;52.422;10.782;2023-08-20T13:04:15;32.20;67.10
39847;DHT22;25517;52.422;10.782;2023-08-20T13:06:41;31.90;69.90
39847;DHT22;25517;52.422;10.782;2023-08-20T13:09:07;31.60;71.90
39847;DHT22;25517;52.422;10.782;2023-08-20T13:11:35;31.50;69.50
39847;DHT22;25517;52.422;10.782;2023-08-20T13:14:02;31.90;70.10
39847;DHT22;25517;52.422;10.782;2023-08-20T13:16:28;32.10;70.70
39847;DHT22;25517;52.422;10.782;2023-08-20T13:18:54;32.30;68.00
39847;DHT22;25517;52.422;10.782;2023-08-20T13:21:20;32.60;71.40
39847;DHT22;25517;52.422;10.782;2023-08-20T13:23:46;32.80;71.30
39847;DHT22;25517;52.422;10.782;2023-08-20T13:26:12;32.90;69.20
39847;DHT22;25517;52.422;10.782;2023-08-20T13:28:37;33.20;68.50
39847;DHT22;25517;52.422;10.782;2023-08-20T13:31:03;33.20;67.70
39847;DHT22;25517;52.422;10.782;2023-08-20T13:33:29;33.30;71.00
39847;DHT22;25517;52.422;10.782;2023-08-20T13:35:54;33.20;66.80
39847;DHT22;25517;52.422;10.782;2023-08-20T13:38:21;32.80;66.20
39847;DHT22;25517;52.422;10.782;2023-08-20T13:40:47;32.60;65.50
39847;DHT22;25517;52.422;10.782;2023-08-20T13:43:14;32.50;68.10
39847;DHT22;25517;52.422;10.782;2023-08-20T13:45:39;32.30;67.30
39847;DHT22;25517;52.422;10.782;2023-08-20T13:48:05;32.30;69.40
39847;DHT22;25517;52.422;10.782;2023-08-20T13:50:31;32.30;70.50
39847;DHT22;25517;52.422;10.782;2023-08-20T13:52:56;32.20;69.30
39847;DHT22;25517;52.422;10.782;2023-08-20T13:55:22;32.10;67.30
39847;DHT22;25517;52.422;10.782;2023-08-20T13:57:47;32.10;69.80
39847;DHT22;25517;52.422;10.782;2023-08-20T14:00:13;32.10;69.10
39847;DHT22;25517;52.422;10.782;2023-08-20T14:02:39;32.10;70.70
39847;DHT22;25517;52.422;10.782;2023-08-20T14:05:05;32.20;70.70
39847;DHT22;25517;52.422;10.782;2023-08-20T14:07:31;32.10;71.60
39847;DHT22;25517;52.422;10.782;2023-08-20T14:09:58;31.70;68.80
39847;DHT22;25517;52.422;10.782;2023-08-20T14:12:24;31.80;70.10
39847;DHT22;25517;52.422;10.782;2023-08-20T14:14:50;31.90;71.20
39847;DHT22;25517;52.422;10.782;2023-08-20T14:17:16;31.90;69.10
39847;DHT22;25517;52.422;10.782;2023-08-20T14:19:41;31.90;68.30
39847;DHT22;25517;52.422;10.782;2023-08-20T14:22:07;31.90;67.30
39847;DHT22;25517;52.422;10.782;2023-08-20T14:24:32;31.60;69.70
39847;DHT22;25517;52.422;10.782;2023-08-20T14:26:58;31.50;73.90
39847;DHT22;25517;52.422;10.782;2023-08-20T14:29:23;31.50;70.20
39847;DHT22;25517;52.422;10.782;2023-08-20T14:31:49;31.30;73.10
39847;DHT22;25517;52.422;10.782;2023-08-20T14:34:14;31.50;69.60
39847;DHT22;25517;52.422;10.782;2023-08-20T14:36:40;31.40;70.10
39847;DHT22;25517;52.422;10.782;2023-08-20T14:39:06;31.30;71.10
39847;DHT22;25517;52.422;10.782;2023-08-20T14:41:31;31.20;73.10
39847;DHT22;25517;52.422;10.782;2023-08-20T14:43:57;31.20;72.90
39847;DHT22;25517;52.422;10.782;2023-08-20T14:46:22;31.00;71.40
39847;DHT22;25517;52.422;10.782;2023-08-20T14:48:48;30.80;73.30
39847;DHT22;25517;52.422;10.782;2023-08-20T14:51:13;30.50;71.50
39847;DHT22;25517;52.422;10.782;2023-08-20T14:53:39;30.40;70.70
39847;DHT22;25517;52.422;10.782;2023-08-20T14:56:04;30.50;71.80
39847;DHT22;25517;52.422;10.782;2023-08-20T14:58:30;30.40;71.50
39847;DHT22;25517;52.422;10.782;2023-08-20T15:00:55;30.50;71.70
39847;DHT22;25517;52.422;10.782;2023-08-20T15:03:21;30.50;70.40
39847;DHT22;25517;52.422;10.782;2023-08-20T15:05:47;30.50;69.00
39847;DHT22;25517;52.422;10.782;2023-08-20T15:08:13;30.50;69.60
39847;DHT22;25517;52.422;10.782;2023-08-20T15:10:39;30.60;70.40
39847;DHT22;25517;52.422;10.782;2023-08-20T15:13:04;30.60;72.20
39847;DHT22;25517;52.422;10.782;2023-08-20T15:15:31;30.60;71.30
39847;DHT22;25517;52.422;10.782;2023-08-20T15:17:56;30.80;70.10
39847;DHT22;25517;52.422;10.782;2023-08-20T15:20:22;30.70;69.40
39847;DHT22;25517;52.422;10.782;2023-08-20T15:22:48;30.70;69.60
39847;DHT22;25517;52.422;10.782;2023-08-20T15:25:14;30.70;70.50
39847;DHT22;25517;52.422;10.782;2023-08-20T15:27:40;30.50;69.60